Frankfort, New York
Current Conditions -  °F | °C
As of 6:53 PM on Monday 24 Nov 2014 (Local Time) from KRME Reporting Station
Overcast Overcast  
Wind Chill: 66°   Ceiling: 8000
Heat Index: 66°   Visibility: 10mi
Dew Point: 48°   Wind: 17mph
Humidity: 52%   Direction: 200°SSW
Pressure: 29.46"   Gusts: 24mph
Location:  43.04°N, 75.07°W
Report Text: KRME 242353Z 20015G21KT 10SM FEW065 OVC080 19/09 A2946 RMK AO2 SLP973 T01890089 10217 20178 51027
Loading
Personal Weather Stations






























Interactive Weather Map New forecast layout! Learn more

10-Day Weather Forecast

Advertisements
Track Severe Weather on mobile